Terminal Aerodrome Forecast
Issued by NWS Cleveland, OH

Home | Current Version | Previous Version | Graphics & Text | Print | Product List | Glossary On
Versions: 1 2 3 4 5 6 7 8 9 10 11 12 13 14 15 16 17 18 19 20 21 22 23 24 25 26 27 28 29
949
FTUS41 KCLE 220538
TAFCLE
TAF
KCLE 220538Z 2206/2312 15005KT P6SM BKN120
     FM221300 18008KT P6SM VCSH BKN040 OVC080
     FM221600 21014G22KT P6SM SCT050 BKN120
     FM230500 20012KT P6SM BKN050
     FM230800 20011KT P6SM VCSH BKN025=

USA.gov is the U.S. government's official web portal to all federal, state and local government web resources and services.